Time;durP1;ratioP1;P1;durP2;ratioP2;P2;SDS_P1;SDS_P2;PMS_P1;PMS_P2;Temp;Humidity;BMP_temperature;BMP_pressure;BME280_temperature;BME280_humidity;BME280_pressure;Samples;Min_cycle;Max_cycle;Signal;HPM_P1;HPM_P2
2022/10/19 00:00:25;;;;;;;54.00;37.88;;;22.80;99.90;;;;;;1950566;72;21287;-82
2022/10/19 00:02:56;;;;;;;44.80;37.00;;;22.50;99.90;;;;;;1951345;72;21507;-82
2022/10/19 00:05:27;;;;;;;47.43;35.78;;;22.60;99.90;;;;;;1965770;72;21543;-84
2022/10/19 00:08:00;;;;;;;48.30;36.85;;;22.80;99.90;;;;;;1961913;72;21045;-85
2022/10/19 00:10:31;;;;;;;50.78;38.45;;;22.50;99.90;;;;;;1960657;72;21169;-82
2022/10/19 00:13:02;;;;;;;52.80;38.02;;;22.50;99.90;;;;;;1947716;73;21232;-88
2022/10/19 00:15:33;;;;;;;51.25;36.90;;;22.50;99.90;;;;;;1956609;72;21621;-84
2022/10/19 00:18:04;;;;;;;48.92;35.00;;;22.60;99.90;;;;;;1919955;73;21581;-86
2022/10/19 00:20:36;;;;;;;41.42;33.58;;;22.70;99.90;;;;;;1895070;74;21128;-85
2022/10/19 00:23:08;;;;;;;42.85;33.63;;;23.10;99.90;;;;;;1925392;73;21239;-82
2022/10/19 00:25:39;;;;;;;48.38;33.73;;;22.90;99.90;;;;;;1926386;74;21062;-84
2022/10/19 00:28:10;;;;;;;48.92;34.08;;;22.90;99.90;;;;;;1923099;73;21573;-82
2022/10/19 00:30:41;;;;;;;44.08;31.87;;;23.00;99.90;;;;;;1916098;73;21648;-82
2022/10/19 00:33:12;;;;;;;39.75;32.20;;;23.20;99.90;;;;;;1955375;72;21559;-82
2022/10/19 00:35:43;;;;;;;46.80;32.00;;;23.30;99.90;;;;;;1952444;72;21111;-82
2022/10/19 00:38:14;;;;;;;41.45;32.03;;;23.40;99.90;;;;;;1955532;72;22001;-82
2022/10/19 00:40:46;;;;;;;41.88;31.68;;;23.30;99.90;;;;;;1950973;72;21157;-81
2022/10/19 00:43:19;;;;;;;46.88;32.10;;;23.40;99.90;;;;;;1924027;73;21132;-84
2022/10/19 00:45:51;;;;;;;41.70;31.20;;;23.50;99.90;;;;;;1904961;73;21134;-82
2022/10/19 00:48:30;;;;;;;40.73;31.75;;;23.90;99.90;;;;;;1919262;73;21229;-83
2022/10/19 00:51:01;;;;;;;43.45;30.62;;;24.00;99.90;;;;;;1915840;73;21107;-82
2022/10/19 00:53:32;;;;;;;37.93;29.45;;;23.80;99.90;;;;;;1916156;74;21362;-82
2022/10/19 00:56:06;;;;;;;36.28;29.32;;;23.90;99.90;;;;;;1921035;73;21103;-81
2022/10/19 00:58:37;;;;;;;45.30;30.23;;;24.00;99.90;;;;;;1918217;73;21164;-82
2022/10/19 01:01:10;;;;;;;38.83;28.40;;;24.00;99.90;;;;;;1897872;74;21673;-82
2022/10/19 01:03:42;;;;;;;36.20;29.00;;;24.10;99.90;;;;;;1911723;73;21076;-83
2022/10/19 01:06:14;;;;;;;44.80;29.48;;;24.00;99.90;;;;;;1901953;73;21166;-82
2022/10/19 01:08:45;;;;;;;35.98;28.90;;;24.20;99.90;;;;;;1919128;73;21183;-82
2022/10/19 01:11:31;;;;;;;34.85;28.67;;;24.40;99.90;;;;;;1951715;72;21131;-83
2022/10/19 01:14:13;;;;;;;40.52;29.57;;;24.40;99.90;;;;;;1950246;73;21224;-82
2022/10/19 01:16:58;;;;;;;44.88;30.85;;;24.20;99.90;;;;;;1904295;73;21091;-82
2022/10/19 01:20:06;;;;;;;33.20;27.13;;;24.20;99.90;;;;;;1953290;72;21050;-81
2022/10/19 01:22:43;;;;;;;39.03;28.83;;;24.30;99.90;;;;;;1957027;72;21159;-81
2022/10/19 01:25:37;;;;;;;45.00;28.17;;;24.40;99.90;;;;;;1957364;72;21092;-81
2022/10/19 01:28:22;;;;;;;35.43;27.25;;;24.40;99.90;;;;;;1932684;72;21079;-82
2022/10/19 01:31:02;;;;;;;38.17;26.82;;;24.70;99.90;;;;;;1913162;73;21138;-77
2022/10/19 01:33:54;;;;;;;38.45;27.70;;;24.70;99.90;;;;;;1905069;75;21048;-77
2022/10/19 01:36:37;;;;;;;40.15;27.13;;;24.90;99.90;;;;;;1887292;74;21100;-77
2022/10/19 01:39:23;;;;;;;45.75;27.67;;;24.80;99.90;;;;;;1910792;74;21560;-78
2022/10/19 01:42:14;;;;;;;37.88;27.10;;;24.70;99.90;;;;;;1963537;71;21057;-78
2022/10/19 01:44:54;;;;;;;38.38;26.77;;;24.80;99.90;;;;;;1951529;73;21563;-78
2022/10/19 01:47:33;;;;;;;36.70;27.10;;;25.10;99.90;;;;;;1947389;73;21599;-77
2022/10/19 01:50:07;;;;;;;40.15;26.65;;;25.10;99.90;;;;;;1885569;74;21094;-78
2022/10/19 01:52:40;;;;;;;37.00;26.93;;;25.00;99.90;;;;;;1902707;74;21208;-78
2022/10/19 01:55:13;;;;;;;39.78;26.68;;;;;;;;;;1881537;76;21080;-78
2022/10/19 01:57:44;;;;;;;33.05;26.77;;;;;;;;;;1909605;73;21166;-77
2022/10/19 02:00:17;;;;;;;34.73;25.35;;;24.60;99.90;;;;;;1880532;74;21208;-78
2022/10/19 02:02:50;;;;;;;36.23;25.77;;;25.10;92.20;;;;;;1913892;73;21091;-78
2022/10/19 02:05:24;;;;;;;38.60;26.77;;;25.40;91.90;;;;;;1884894;74;21161;-77
2022/10/19 02:07:57;;;;;;;36.50;25.55;;;25.30;91.60;;;;;;1909704;73;21181;-78
2022/10/19 02:10:30;;;;;;;37.85;25.32;;;25.30;91.30;;;;;;1927920;73;21215;-76
2022/10/19 02:13:03;;;;;;;33.95;25.30;;;25.60;90.90;;;;;;1910656;74;21119;-77
2022/10/19 02:15:37;;;;;;;32.73;24.87;;;25.60;90.50;;;;;;1912865;74;21156;-77
2022/10/19 02:18:10;;;;;;;33.40;24.75;;;25.50;90.40;;;;;;1951112;73;21115;-77
2022/10/19 02:20:41;;;;;;;34.88;24.77;;;25.60;90.00;;;;;;1967763;71;21209;-77
2022/10/19 02:23:15;;;;;;;36.68;26.07;;;25.70;88.90;;;;;;1964150;72;21056;-75
2022/10/19 02:25:46;;;;;;;37.38;24.85;;;25.80;88.60;;;;;;1965536;72;21048;-78
2022/10/19 02:28:17;;;;;;;31.10;24.15;;;25.90;88.80;;;;;;1953576;72;21095;-78
2022/10/19 02:30:48;;;;;;;35.40;25.48;;;25.90;88.40;;;;;;1966563;72;21184;-79
2022/10/19 02:33:19;;;;;;;33.30;23.40;;;26.10;87.90;;;;;;1957873;72;21177;-76
2022/10/19 02:35:51;;;;;;;34.55;24.35;;;26.10;86.80;;;;;;1964299;72;21224;-76
2022/10/19 02:38:24;;;;;;;33.35;23.62;;;26.10;84.80;;;;;;1949006;73;21139;-77
2022/10/19 02:41:16;;;;;;;32.25;24.02;;;26.20;81.90;;;;;;1941628;72;21705;-79
2022/10/19 02:43:49;;;;;;;32.88;24.20;;;26.20;81.60;;;;;;1934025;72;21230;-78
2022/10/19 02:46:30;;;;;;;29.50;23.57;;;26.40;80.30;;;;;;1945579;72;21630;-78
2022/10/19 02:49:04;;;;;;;34.30;24.43;;;26.30;78.00;;;;;;1898600;73;21570;-79
2022/10/19 02:51:40;;;;;;;34.35;24.82;;;26.50;76.50;;;;;;1939618;73;21550;-77
2022/10/19 02:54:11;;;;;;;32.75;23.30;;;26.50;74.90;;;;;;1950816;73;21099;-77
2022/10/19 02:56:42;;;;;;;29.15;23.70;;;26.50;73.40;;;;;;1951870;73;21202;-77
2022/10/19 02:59:13;;;;;;;33.08;24.47;;;26.60;73.10;;;;;;1959453;72;21033;-77
2022/10/19 03:01:45;;;;;;;30.25;22.32;;;26.70;72.40;;;;;;1926267;73;21088;-78
2022/10/19 03:04:16;;;;;;;29.10;23.10;;;26.80;71.70;;;;;;1958383;73;21197;-77
2022/10/19 03:06:48;;;;;;;30.23;24.63;;;26.90;71.90;;;;;;1962798;72;21197;-76
2022/10/19 03:09:19;;;;;;;34.75;23.65;;;27.00;71.10;;;;;;1966504;72;21070;-76
2022/10/19 03:11:53;;;;;;;32.03;22.77;;;27.10;71.30;;;;;;1942820;72;21228;-76
2022/10/19 03:14:25;;;;;;;32.73;24.02;;;27.20;69.70;;;;;;1936476;72;21080;-77
2022/10/19 03:16:56;;;;;;;35.68;24.25;;;27.30;69.60;;;;;;1914559;74;21194;-77
2022/10/19 03:19:27;;;;;;;35.78;24.30;;;27.30;69.20;;;;;;1926424;74;21147;-77
2022/10/19 03:22:04;;;;;;;31.40;24.00;;;27.40;69.70;;;;;;1925819;73;21525;-76
2022/10/19 03:24:41;;;;;;;37.00;23.30;;;27.40;69.30;;;;;;1885185;76;21440;-77
2022/10/19 03:27:12;;;;;;;33.73;23.55;;;27.50;69.30;;;;;;1853237;76;21570;-76
2022/10/19 03:29:43;;;;;;;32.90;24.23;;;27.60;69.50;;;;;;1883223;75;21110;-77
2022/10/19 03:32:16;;;;;;;30.35;23.73;;;27.70;68.50;;;;;;1885344;74;21105;-78
2022/10/19 03:34:47;;;;;;;30.45;23.75;;;27.80;67.70;;;;;;1887922;76;21131;-76
2022/10/19 03:37:18;;;;;;;29.23;22.48;;;27.80;67.90;;;;;;1886075;74;21150;-75
2022/10/19 03:39:48;;;;;;;27.85;22.02;;;28.00;68.20;;;;;;1882976;74;21241;-76
2022/10/19 03:42:20;;;;;;;31.17;22.73;;;28.10;66.80;;;;;;1884900;76;21159;-74
2022/10/19 03:44:51;;;;;;;35.05;22.93;;;28.10;66.80;;;;;;1882839;76;21167;-77
2022/10/19 03:47:22;;;;;;;35.73;23.12;;;28.20;66.60;;;;;;1873115;76;21147;-75
2022/10/19 03:49:54;;;;;;;29.30;22.32;;;28.20;66.60;;;;;;1874295;74;22090;-76
2022/10/19 03:52:25;;;;;;;35.33;21.93;;;28.30;65.40;;;;;;1869266;76;21088;-76
2022/10/19 03:54:56;;;;;;;33.00;22.37;;;28.30;64.90;;;;;;1874287;76;21107;-77
2022/10/19 03:57:26;;;;;;;29.07;22.02;;;28.40;65.30;;;;;;1879249;74;21421;-77
2022/10/19 03:59:57;;;;;;;28.95;21.62;;;28.50;64.60;;;;;;1851256;76;21152;-74
2022/10/19 04:02:29;;;;;;;28.30;21.90;;;28.60;64.40;;;;;;1875159;75;21162;-75
2022/10/19 04:05:00;;;;;;;30.23;22.00;;;28.60;64.40;;;;;;1873940;76;21141;-75
2022/10/19 04:07:30;;;;;;;32.05;22.82;;;28.70;65.90;;;;;;1855608;75;21216;-77
2022/10/19 04:10:02;;;;;;;31.90;22.90;;;28.80;65.40;;;;;;1928178;74;21151;-75
2022/10/19 04:12:34;;;;;;;28.27;21.82;;;28.80;65.90;;;;;;1934708;74;21123;-76
2022/10/19 04:15:05;;;;;;;31.95;22.80;;;28.90;65.40;;;;;;1934754;72;21193;-76
2022/10/19 04:17:36;;;;;;;31.95;22.35;;;29.00;64.70;;;;;;1966380;72;21120;-76
2022/10/19 04:20:08;;;;;;;29.60;22.15;;;29.10;64.80;;;;;;1956428;72;21200;-75
2022/10/19 04:22:39;;;;;;;27.07;21.68;;;;;;;;;;1954694;72;21552;-75
2022/10/19 04:25:11;;;;;;;29.05;21.50;;;29.20;63.40;;;;;;1950616;72;21185;-75
2022/10/19 04:27:43;;;;;;;30.10;21.70;;;29.30;64.30;;;;;;1963570;72;21697;-76
2022/10/19 04:30:14;;;;;;;29.98;21.05;;;29.30;64.50;;;;;;1903217;73;21091;-75
2022/10/19 04:32:45;;;;;;;30.52;22.30;;;29.40;62.60;;;;;;1901856;73;21130;-75
2022/10/19 04:35:16;;;;;;;28.00;20.08;;;29.50;62.60;;;;;;1902930;75;21146;-76
2022/10/19 04:37:47;;;;;;;30.27;21.17;;;29.50;62.50;;;;;;1913694;73;21076;-76
2022/10/19 04:40:18;;;;;;;27.75;20.15;;;29.60;61.90;;;;;;1912206;73;21474;-76
2022/10/19 04:42:49;;;;;;;29.65;21.95;;;29.60;61.20;;;;;;1891772;74;21161;-76
2022/10/19 04:45:20;;;;;;;27.05;20.40;;;29.60;60.80;;;;;;1913203;74;21113;-76
2022/10/19 04:47:53;;;;;;;29.72;21.30;;;29.70;61.40;;;;;;1916612;73;21749;-77
2022/10/19 04:50:25;;;;;;;26.30;20.15;;;29.70;61.40;;;;;;1905636;75;21245;-74
2022/10/19 04:52:56;;;;;;;27.58;19.17;;;29.70;60.80;;;;;;1896532;74;21074;-77
2022/10/19 04:55:27;;;;;;;27.13;20.25;;;29.70;59.50;;;;;;1882744;76;21151;-76
2022/10/19 04:57:58;;;;;;;30.45;20.62;;;29.80;60.20;;;;;;1912983;74;21177;-76
2022/10/19 05:00:30;;;;;;;22.87;18.75;;;29.80;60.40;;;;;;1913789;74;21197;-76
2022/10/19 05:03:06;;;;;;;27.45;19.55;;;29.80;58.50;;;;;;1908587;74;21069;-78
2022/10/19 05:05:37;;;;;;;26.73;20.15;;;29.90;58.90;;;;;;1911107;75;21185;-76
2022/10/19 05:08:09;;;;;;;32.23;20.32;;;29.90;58.70;;;;;;1907333;74;21105;-77
2022/10/19 05:10:41;;;;;;;24.95;18.85;;;30.00;58.50;;;;;;1924725;73;21686;-76
2022/10/19 05:13:14;;;;;;;25.62;19.15;;;30.10;58.00;;;;;;1917763;73;21490;-79
2022/10/19 05:15:46;;;;;;;28.47;18.80;;;30.10;57.50;;;;;;1909090;73;21110;-77
2022/10/19 05:18:19;;;;;;;26.27;19.50;;;30.10;57.00;;;;;;1884636;75;22034;-81
2022/10/19 05:20:50;;;;;;;26.12;19.20;;;30.10;57.20;;;;;;1887221;74;21090;-83
2022/10/19 05:23:22;;;;;;;24.80;18.60;;;30.10;57.70;;;;;;1910759;73;21140;-84
2022/10/19 05:26:04;;;;;;;25.88;18.10;;;30.20;57.10;;;;;;1851488;77;21139;-84
2022/10/19 05:28:35;;;;;;;25.08;19.07;;;30.20;56.80;;;;;;1904254;75;21606;-84
2022/10/19 05:31:14;;;;;;;25.95;18.40;;;30.20;56.90;;;;;;1920381;74;21186;-84
2022/10/19 05:33:55;;;;;;;23.87;18.50;;;30.20;57.00;;;;;;1916338;73;21119;-84
2022/10/19 05:36:33;;;;;;;24.32;18.70;;;30.20;57.10;;;;;;1913224;73;21115;-84
2022/10/19 05:39:07;;;;;;;28.20;19.00;;;30.30;57.30;;;;;;1895441;73;21140;-83
2022/10/19 05:41:38;;;;;;;26.48;18.75;;;30.40;56.70;;;;;;1923391;73;21154;-85
2022/10/19 05:44:10;;;;;;;22.98;18.62;;;30.40;56.30;;;;;;1906654;74;21666;-84
2022/10/19 05:46:41;;;;;;;24.45;19.57;;;30.50;56.50;;;;;;1918736;73;21119;-84
2022/10/19 05:49:14;;;;;;;24.43;18.25;;;30.50;56.20;;;;;;1905020;73;21121;-84
2022/10/19 05:51:45;;;;;;;24.43;19.25;;;30.50;56.70;;;;;;1920081;75;21071;-85
2022/10/19 05:54:39;;;;;;;26.15;18.70;;;30.50;56.20;;;;;;1905860;73;21591;-83
2022/10/19 05:57:28;;;;;;;23.15;18.98;;;30.50;56.90;;;;;;1898255;73;21086;-85
2022/10/19 06:00:17;;;;;;;24.10;18.65;;;30.50;56.00;;;;;;1851292;76;21673;-85
2022/10/19 06:02:52;;;;;;;26.27;19.27;;;30.50;56.00;;;;;;1895646;75;21142;-84
2022/10/19 06:05:24;;;;;;;24.72;19.62;;;30.50;56.00;;;;;;1910962;72;21111;-84
2022/10/19 06:07:55;;;;;;;24.00;19.20;;;30.60;56.00;;;;;;1883059;74;21571;-84
2022/10/19 06:10:29;;;;;;;25.57;19.48;;;30.50;56.60;;;;;;1918795;73;21560;-87
2022/10/19 06:13:00;;;;;;;21.07;18.23;;;30.60;56.90;;;;;;1912293;72;21195;-87
2022/10/19 06:15:35;;;;;;;24.70;17.87;;;30.60;57.00;;;;;;1895391;74;21591;-85
2022/10/19 06:18:08;;;;;;;24.35;17.80;;;30.60;56.80;;;;;;1919160;73;21098;-86
2022/10/19 06:20:41;;;;;;;27.07;18.07;;;30.60;56.70;;;;;;1924838;73;21243;-83
2022/10/19 06:23:12;;;;;;;26.50;18.42;;;30.70;56.40;;;;;;1926351;73;21146;-84
2022/10/19 06:25:43;;;;;;;27.10;18.87;;;30.70;56.20;;;;;;1940420;72;21064;-83
2022/10/19 06:28:17;;;;;;;22.20;17.92;;;30.70;56.30;;;;;;1963131;72;21887;-83
2022/10/19 06:30:48;;;;;;;23.52;18.35;;;30.70;56.40;;;;;;1909288;73;21176;-84
2022/10/19 06:33:19;;;;;;;27.67;18.73;;;30.80;56.50;;;;;;1929438;73;21922;-84
2022/10/19 06:35:50;;;;;;;26.90;17.87;;;30.80;56.40;;;;;;1929866;73;21098;-84
2022/10/19 06:38:22;;;;;;;24.30;17.10;;;30.80;56.60;;;;;;1927942;73;21172;-84
2022/10/19 06:40:53;;;;;;;25.37;17.42;;;30.80;56.40;;;;;;1931487;73;21193;-85
2022/10/19 06:43:24;;;;;;;24.37;18.35;;;30.80;55.90;;;;;;1929495;73;21136;-85
2022/10/19 06:45:55;;;;;;;27.93;18.32;;;30.70;56.20;;;;;;1928253;73;21106;-84
2022/10/19 06:48:26;;;;;;;24.23;17.85;;;30.70;56.60;;;;;;1928134;73;21117;-84
2022/10/19 06:51:02;;;;;;;24.98;17.52;;;30.70;56.80;;;;;;1925118;73;21079;-84
2022/10/19 06:53:33;;;;;;;27.75;17.85;;;30.80;56.70;;;;;;1909433;73;21115;-84
2022/10/19 06:56:06;;;;;;;28.05;17.40;;;30.80;56.60;;;;;;1869398;76;21586;-84
2022/10/19 06:58:38;;;;;;;22.65;17.32;;;30.80;56.70;;;;;;1929185;74;21475;-83
2022/10/19 07:01:11;;;;;;;25.62;18.77;;;30.80;56.90;;;;;;1898763;75;21131;-85
2022/10/19 07:03:42;;;;;;;29.80;18.52;;;30.80;56.60;;;;;;1911852;75;21075;-84
2022/10/19 07:06:21;;;;;;;24.72;18.90;;;30.80;56.80;;;;;;1903299;75;21125;-85
2022/10/19 07:08:49;;;;;;;28.77;18.70;;;30.80;56.60;;;;;;1905752;73;21620;-84
2022/10/19 07:11:22;;;;;;;22.70;17.35;;;30.70;56.90;;;;;;1930557;73;21133;-86
2022/10/19 07:13:53;;;;;;;23.15;17.45;;;30.70;56.70;;;;;;1921036;74;21219;-85
2022/10/19 07:16:24;;;;;;;25.62;18.57;;;30.70;57.10;;;;;;1897973;72;21080;-84
2022/10/19 07:18:55;;;;;;;25.48;18.20;;;30.60;56.20;;;;;;1918823;74;21080;-84
2022/10/19 07:21:29;;;;;;;22.85;17.90;;;30.60;56.30;;;;;;1886115;75;21583;-83
2022/10/19 07:24:01;;;;;;;19.23;16.97;;;30.50;56.50;;;;;;1882560;75;21086;-85
2022/10/19 07:26:33;;;;;;;22.70;17.65;;;30.40;56.40;;;;;;1881981;76;21103;-83
2022/10/19 07:29:04;;;;;;;24.95;18.30;;;30.40;56.60;;;;;;1884966;76;21548;-82
2022/10/19 07:31:35;;;;;;;22.32;18.07;;;30.30;56.90;;;;;;1885171;76;21155;-84
2022/10/19 07:34:06;;;;;;;21.33;17.67;;;30.30;57.00;;;;;;1886272;76;21508;-82
2022/10/19 07:36:38;;;;;;;23.25;18.23;;;30.30;57.50;;;;;;1892601;76;21071;-82
2022/10/19 07:39:09;;;;;;;23.12;17.98;;;30.20;57.30;;;;;;1924153;74;21110;-85
2022/10/19 07:41:43;;;;;;;23.83;18.17;;;30.30;56.60;;;;;;1903986;74;21621;-83
2022/10/19 07:44:15;;;;;;;24.57;18.35;;;30.20;56.30;;;;;;1893150;74;21559;-82
2022/10/19 07:46:46;;;;;;;23.70;18.57;;;30.20;56.30;;;;;;1928069;74;21463;-85
2022/10/19 07:49:20;;;;;;;21.87;18.07;;;30.20;56.90;;;;;;1904870;74;21163;-83
2022/10/19 07:51:52;;;;;;;20.92;16.82;;;30.20;56.30;;;;;;1897325;74;21104;-84
2022/10/19 07:54:24;;;;;;;28.75;17.70;;;30.20;56.00;;;;;;1890366;75;21111;-85
2022/10/19 07:56:54;;;;;;;24.23;18.23;;;30.20;56.50;;;;;;1890683;74;21079;-84
2022/10/19 07:59:28;;;;;;;20.97;17.92;;;30.20;56.70;;;;;;1916782;74;21122;-82
2022/10/19 08:02:01;;;;;;;27.02;19.15;;;30.20;56.70;;;;;;1934168;74;21233;-83
2022/10/19 08:04:31;;;;;;;24.07;18.37;;;30.20;56.40;;;;;;1927048;74;21116;-85
2022/10/19 08:07:03;;;;;;;22.45;18.77;;;30.10;56.30;;;;;;1891191;74;21775;-83
2022/10/19 08:09:34;;;;;;;21.07;17.30;;;30.20;56.00;;;;;;1933362;74;21162;-82
2022/10/19 08:12:07;;;;;;;26.30;18.90;;;30.20;56.10;;;;;;1907391;73;21138;-84
2022/10/19 08:14:39;;;;;;;25.23;17.37;;;30.20;55.80;;;;;;1905136;73;21242;-83
2022/10/19 08:17:15;;;;;;;23.55;18.45;;;30.10;56.30;;;;;;1883986;74;21191;-85
2022/10/19 08:19:45;;;;;;;25.65;18.17;;;30.10;55.90;;;;;;1917377;74;21158;-83
2022/10/19 08:22:16;;;;;;;24.85;18.92;;;30.10;56.40;;;;;;1914176;74;21672;-83
2022/10/19 08:24:48;;;;;;;24.82;18.55;;;30.10;56.10;;;;;;1905105;74;21572;-82
2022/10/19 08:27:19;;;;;;;22.80;18.02;;;30.10;56.30;;;;;;1920831;74;21079;-83
2022/10/19 08:29:50;;;;;;;23.83;19.17;;;30.10;56.80;;;;;;1920036;74;21142;-83
2022/10/19 08:32:21;;;;;;;26.17;18.52;;;30.10;56.30;;;;;;1920716;74;21168;-85
2022/10/19 08:34:53;;;;;;;24.00;19.20;;;30.10;56.10;;;;;;1925918;73;21119;-83
2022/10/19 08:37:35;;;;;;;24.12;18.92;;;30.10;56.50;;;;;;1932854;72;21155;-82
2022/10/19 08:40:19;;;;;;;28.52;18.65;;;30.10;56.80;;;;;;1922449;72;21638;-85
2022/10/19 08:43:02;;;;;;;22.85;18.75;;;30.00;57.60;;;;;;1927512;72;21130;-84
2022/10/19 08:45:53;;;;;;;26.85;19.70;;;30.00;56.90;;;;;;1922867;73;21545;-85
2022/10/19 08:48:35;;;;;;;25.27;19.12;;;30.00;57.20;;;;;;1885986;74;21168;-84
2022/10/19 08:51:08;;;;;;;23.77;18.27;;;30.00;56.80;;;;;;1885780;75;21071;-83
2022/10/19 08:53:45;;;;;;;27.13;19.00;;;29.90;56.80;;;;;;1889281;73;21183;-84
2022/10/19 08:56:27;;;;;;;25.62;19.70;;;29.90;56.80;;;;;;1909759;74;21141;-84
2022/10/19 08:59:11;;;;;;;25.70;19.67;;;29.90;57.10;;;;;;1927486;74;21147;-84
2022/10/19 09:01:50;;;;;;;25.88;19.67;;;29.90;57.00;;;;;;1908828;74;21265;-83
2022/10/19 09:04:40;;;;;;;24.75;19.32;;;29.90;57.20;;;;;;1916142;74;21197;-83
2022/10/19 09:07:36;;;;;;;23.18;19.02;;;29.80;57.50;;;;;;1936629;74;21162;-83
2022/10/19 09:10:15;;;;;;;25.92;19.12;;;29.80;57.50;;;;;;1935021;74;21178;-84
2022/10/19 09:12:52;;;;;;;28.55;20.02;;;29.80;57.50;;;;;;1912696;74;21111;-84
2022/10/19 09:15:26;;;;;;;25.45;18.80;;;29.80;57.80;;;;;;1931949;74;21587;-83
2022/10/19 09:17:57;;;;;;;23.47;18.65;;;29.80;58.10;;;;;;1934544;73;21181;-84
2022/10/19 09:20:33;;;;;;;25.68;19.87;;;29.70;58.20;;;;;;1963004;72;21330;-83
2022/10/19 09:23:22;;;;;;;24.60;19.42;;;29.70;58.20;;;;;;1941477;72;21083;-83
2022/10/19 09:25:54;;;;;;;26.23;19.02;;;29.70;57.20;;;;;;1913153;75;21578;-83
2022/10/19 09:28:39;;;;;;;26.77;19.48;;;29.60;57.20;;;;;;1966121;72;21049;-85
2022/10/19 09:31:19;;;;;;;25.30;18.48;;;29.60;56.90;;;;;;1914254;73;21185;-84
2022/10/19 09:33:52;;;;;;;23.52;19.00;;;29.50;57.00;;;;;;1906214;73;21068;-83
2022/10/19 09:36:24;;;;;;;25.48;18.87;;;29.50;57.20;;;;;;1956707;72;21194;-83
2022/10/19 09:39:03;;;;;;;25.82;19.27;;;29.40;57.50;;;;;;1944291;72;21736;-84
2022/10/19 09:41:35;;;;;;;26.82;19.57;;;29.40;57.90;;;;;;1921547;73;21092;-84
2022/10/19 09:44:06;;;;;;;24.47;19.85;;;29.40;58.30;;;;;;1926192;74;21120;-84
2022/10/19 09:46:51;;;;;;;23.52;19.30;;;29.40;58.60;;;;;;1949757;73;21092;-83
2022/10/19 09:49:31;;;;;;;26.07;19.57;;;29.30;58.40;;;;;;1885404;75;21154;-82
2022/10/19 09:52:02;;;;;;;27.65;19.62;;;29.30;58.60;;;;;;1947981;72;21133;-83
2022/10/19 09:54:38;;;;;;;25.77;18.82;;;29.20;58.40;;;;;;1950866;72;21109;-84
2022/10/19 09:57:12;;;;;;;27.60;19.98;;;29.20;58.40;;;;;;1932537;73;21135;-82
2022/10/19 09:59:43;;;;;;;26.48;19.70;;;29.20;58.60;;;;;;1948400;71;21166;-83
2022/10/19 10:02:22;;;;;;;29.67;21.10;;;29.10;59.00;;;;;;1945182;73;21115;-84
2022/10/19 10:05:05;;;;;;;25.65;19.60;;;29.10;59.20;;;;;;1940041;73;21097;-83
2022/10/19 10:07:38;;;;;;;24.60;19.65;;;29.10;59.40;;;;;;1922867;73;21119;-84
2022/10/19 10:10:31;;;;;;;27.00;20.50;;;29.00;59.60;;;;;;1952610;73;21201;-82
2022/10/19 10:13:03;;;;;;;26.57;19.48;;;29.00;60.00;;;;;;1952880;73;21193;-84
2022/10/19 10:15:42;;;;;;;30.62;21.73;;;29.00;60.50;;;;;;1915444;73;21118;-83
2022/10/19 10:18:18;;;;;;;30.48;21.07;;;29.00;61.40;;;;;;1944106;73;21196;-84
2022/10/19 10:21:03;;;;;;;26.10;21.30;;;28.90;62.50;;;;;;1934339;73;21512;-83
2022/10/19 10:23:35;;;;;;;;;;;28.90;63.20;;;;;;1923782;73;21472;-83
2022/10/19 10:26:08;;;;;;;26.05;20.90;;;28.90;63.30;;;;;;1939384;73;20273;-83
2022/10/19 10:28:41;;;;;;;31.05;22.62;;;28.80;64.10;;;;;;1943755;73;21189;-83
2022/10/19 10:31:12;;;;;;;29.55;22.90;;;28.80;64.60;;;;;;1944485;73;21648;-85
2022/10/19 10:33:43;;;;;;;28.87;22.37;;;28.80;64.80;;;;;;1936902;73;21170;-83
2022/10/19 10:36:15;;;;;;;29.23;22.85;;;28.70;64.80;;;;;;1937278;73;21196;-83
2022/10/19 10:38:48;;;;;;;29.37;22.40;;;28.70;65.10;;;;;;1927097;72;21576;-83
2022/10/19 10:41:28;;;;;;;28.55;22.48;;;28.70;65.30;;;;;;1893448;74;21116;-83
2022/10/19 10:44:02;;;;;;;30.52;23.15;;;28.60;65.50;;;;;;1944091;72;21206;-82
2022/10/19 10:46:48;;;;;;;31.68;23.57;;;28.60;66.00;;;;;;1957909;72;21663;-84
2022/10/19 10:49:22;;;;;;;28.73;23.90;;;28.60;67.30;;;;;;1918746;72;21646;-84
2022/10/19 10:51:58;;;;;;;34.33;24.70;;;28.50;66.80;;;;;;1955015;72;21217;-83
2022/10/19 10:54:30;;;;;;;41.60;25.68;;;28.50;66.90;;;;;;1950413;72;21175;-82
2022/10/19 10:57:11;;;;;;;30.10;22.73;;;28.50;67.20;;;;;;1914212;74;21257;-84
2022/10/19 10:59:56;;;;;;;28.62;25.60;;;28.40;67.10;;;;;;1949440;72;21183;-83
2022/10/19 11:02:54;;;;;;;33.50;24.47;;;28.40;67.40;;;;;;1960608;72;21052;-83
2022/10/19 11:05:28;;;;;;;35.45;25.52;;;28.40;67.20;;;;;;1932792;72;21116;-84
2022/10/19 11:08:13;;;;;;;32.33;25.43;;;28.30;68.00;;;;;;1910445;75;21171;-84
2022/10/19 11:10:59;;;;;;;47.75;34.58;;;28.30;68.00;;;;;;1926289;74;21894;-82
2022/10/19 11:13:47;;;;;;;31.23;24.57;;;28.30;68.40;;;;;;1962001;72;21111;-83
2022/10/19 11:16:26;;;;;;;30.80;23.42;;;28.30;68.30;;;;;;1939523;72;21174;-83
2022/10/19 11:19:18;;;;;;;35.03;23.38;;;28.20;68.10;;;;;;1960415;72;21135;-84
2022/10/19 11:22:14;;;;;;;31.50;23.70;;;28.20;68.30;;;;;;1882825;76;21153;-83
2022/10/19 11:25:05;;;;;;;32.63;24.47;;;28.20;68.50;;;;;;1853018;76;21189;-85
2022/10/19 11:28:03;;;;;;;31.15;23.77;;;28.10;69.00;;;;;;1927311;74;21157;-86
2022/10/19 11:30:38;;;;;;;33.90;26.20;;;28.10;69.30;;;;;;1912320;75;21704;-85
2022/10/19 11:33:36;;;;;;;34.27;28.55;;;28.10;69.40;;;;;;1903411;72;21128;-84
2022/10/19 11:36:26;;;;;;;36.73;26.90;;;28.10;69.70;;;;;;1916252;72;21272;-84
2022/10/19 11:39:12;;;;;;;34.10;26.15;;;28.00;69.80;;;;;;1859086;75;21125;-84
2022/10/19 11:41:52;;;;;;;34.73;26.95;;;28.00;71.10;;;;;;1892312;75;21174;-83
2022/10/19 11:44:37;;;;;;;35.23;26.50;;;28.00;71.20;;;;;;1908685;72;21130;-84
2022/10/19 11:47:32;;;;;;;37.00;27.05;;;28.00;70.70;;;;;;1925854;74;21100;-83
2022/10/19 11:50:22;;;;;;;44.65;29.30;;;28.00;70.90;;;;;;1921332;74;21659;-80
2022/10/19 11:53:05;;;;;;;38.23;27.85;;;28.00;71.60;;;;;;1917466;72;21144;-83
2022/10/19 11:55:47;;;;;;;37.88;30.40;;;27.90;71.50;;;;;;1925353;73;21072;-84
2022/10/19 11:58:45;;;;;;;42.95;29.18;;;27.90;72.00;;;;;;1892702;74;21129;-83
2022/10/19 12:01:22;;;;;;;38.40;29.10;;;27.90;72.20;;;;;;1892261;74;21159;-83
2022/10/19 12:04:05;;;;;;;47.48;30.65;;;27.80;72.20;;;;;;1885105;74;21586;-83
2022/10/19 12:06:38;;;;;;;43.30;30.35;;;27.90;72.50;;;;;;1886567;74;21179;-84
2022/10/19 12:09:39;;;;;;;40.75;29.25;;;27.80;72.50;;;;;;1882630;74;21695;-80
2022/10/19 12:12:29;;;;;;;37.78;29.12;;;27.80;72.60;;;;;;1886217;75;21686;-82
2022/10/19 12:15:18;;;;;;;44.35;31.40;;;27.80;72.90;;;;;;1881110;76;21587;-83
2022/10/19 12:17:51;;;;;;;38.60;29.35;;;27.80;73.20;;;;;;1904975;74;21166;-85
2022/10/19 12:20:32;;;;;;;37.40;28.23;;;27.80;73.20;;;;;;1911133;73;21218;-84
2022/10/19 12:23:06;;;;;;;34.58;27.90;;;27.80;73.20;;;;;;1908974;75;21111;-84
2022/10/19 12:25:39;;;;;;;39.55;29.45;;;27.70;73.10;;;;;;1936443;72;21576;-83
2022/10/19 12:28:12;;;;;;;36.90;29.12;;;27.80;73.50;;;;;;1961744;72;21139;-84
2022/10/19 12:30:44;;;;;;;39.10;29.27;;;27.70;73.70;;;;;;1876554;73;21676;-83
2022/10/19 12:33:20;;;;;;;37.35;28.65;;;27.70;74.10;;;;;;1894436;74;21140;-84
2022/10/19 12:36:19;;;;;;;38.58;30.10;;;27.70;74.70;;;;;;1904234;73;21240;-82
2022/10/19 12:39:09;;;;;;;38.38;30.12;;;27.70;75.10;;;;;;1918199;73;21115;-84
2022/10/19 12:41:43;;;;;;;36.33;28.35;;;27.70;75.70;;;;;;1903339;74;21150;-84
2022/10/19 12:44:22;;;;;;;42.23;30.37;;;27.60;75.90;;;;;;1949819;73;21138;-83
2022/10/19 12:46:55;;;;;;;42.53;30.97;;;27.60;76.30;;;;;;1953609;72;21068;-83
2022/10/19 12:49:30;;;;;;;49.27;33.60;;;27.60;76.30;;;;;;1964295;72;21120;-85
2022/10/19 12:52:02;;;;;;;44.45;32.83;;;27.60;76.60;;;;;;1965716;72;21033;-83
2022/10/19 12:54:39;;;;;;;44.03;34.27;;;27.50;76.60;;;;;;1898776;73;21530;-83
2022/10/19 12:57:30;;;;;;;41.80;34.40;;;27.50;76.70;;;;;;1937357;74;21139;-82
2022/10/19 13:00:07;;;;;;;43.65;33.45;;;27.50;76.90;;;;;;1955041;73;21111;-83
2022/10/19 13:02:40;;;;;;;48.10;34.67;;;27.40;76.70;;;;;;1942478;72;21588;-82
2022/10/19 13:05:26;;;;;;;45.50;33.60;;;27.40;76.70;;;;;;1950431;72;21107;-83
2022/10/19 13:08:01;;;;;;;42.45;34.05;;;27.40;76.80;;;;;;1890901;74;21132;-83
2022/10/19 13:10:33;;;;;;;47.27;33.95;;;27.40;77.20;;;;;;1891666;75;21139;-82